createdAt,value
2022-09-29T00:04:22.457Z,7.50
2022-09-29T00:11:05.005Z,8.20
2022-09-29T00:17:34.303Z,8.50
2022-09-29T00:24:17.185Z,7.70
2022-09-29T00:30:59.942Z,7.20
2022-09-29T00:37:42.870Z,6.60
2022-09-29T00:44:29.841Z,7.00
2022-09-29T00:51:18.613Z,6.60
2022-09-29T00:58:01.507Z,7.60
2022-09-29T01:04:44.451Z,7.70
2022-09-29T01:11:27.193Z,8.80
2022-09-29T01:18:10.181Z,8.30
2022-09-29T01:25:05.381Z,8.10
2022-09-29T01:32:03.506Z,8.70
2022-09-29T01:38:59.059Z,10.00
2022-09-29T01:45:40.798Z,9.30
2022-09-29T01:52:39.335Z,10.10
2022-09-29T01:59:28.254Z,10.20
2022-09-29T02:06:17.251Z,10.50
2022-09-29T02:13:00.097Z,9.70
2022-09-29T02:19:49.099Z,9.20
2022-09-29T02:26:32.225Z,9.30
2022-09-29T02:33:15.462Z,8.40
2022-09-29T02:40:10.317Z,8.50
2022-09-29T02:47:02.010Z,9.90
2022-09-29T02:54:03.961Z,8.70
2022-09-29T03:00:49.574Z,8.40
2022-09-29T03:07:32.859Z,8.60
2022-09-29T03:14:15.607Z,7.90
2022-09-29T03:20:58.478Z,7.70
2022-09-29T03:27:40.861Z,7.80
2022-09-29T03:34:23.910Z,7.30
2022-09-29T03:41:06.880Z,6.50
2022-09-29T03:47:49.773Z,7.60
2022-09-29T03:54:32.806Z,8.00
2022-09-29T04:01:15.970Z,8.50
2022-09-29T04:07:59.139Z,8.50
2022-09-29T04:14:42.222Z,8.30
2022-09-29T04:21:25.307Z,8.90
2022-09-29T04:28:09.420Z,8.50
2022-09-29T04:34:52.302Z,8.90
2022-09-29T04:41:35.323Z,9.10
2022-09-29T04:48:18.335Z,9.50
2022-09-29T04:55:01.362Z,9.10
2022-09-29T05:01:47.297Z,10.30
2022-09-29T05:08:29.971Z,10.10
2022-09-29T05:15:13.027Z,9.10
2022-09-29T05:21:55.959Z,10.10
2022-09-29T05:28:39.073Z,11.20
2022-09-29T05:35:22.225Z,10.60
2022-09-29T05:42:05.877Z,10.00
2022-09-29T05:48:49.022Z,13.20
2022-09-29T05:55:32.483Z,9.50
2022-09-29T06:02:17.570Z,11.50
2022-09-29T06:09:03.407Z,9.90
2022-09-29T06:15:49.709Z,10.60
2022-09-29T06:22:11.151Z,13.40
2022-09-29T06:27:33.705Z,13.10
2022-09-29T06:32:56.851Z,8.70
2022-09-29T06:38:18.929Z,8.50
2022-09-29T06:44:41.394Z,8.80
2022-09-29T06:51:03.197Z,10.50
2022-09-29T07:15:46.285Z,5.20
2022-09-29T07:27:41.948Z,6.00
2022-09-29T07:33:24.088Z,5.00
2022-09-29T07:39:08.942Z,4.80
2022-09-29T07:44:52.616Z,4.30
2022-09-29T07:50:34.186Z,5.20
2022-09-29T07:56:07.025Z,4.80
2022-09-29T08:01:50.254Z,4.10
2022-09-29T08:07:57.217Z,4.20
2022-09-29T08:13:47.166Z,4.50
2022-09-29T08:50:48.243Z,9.10
2022-09-29T08:56:32.087Z,2.10
2022-09-29T09:02:57.577Z,1.70
2022-09-29T09:08:44.258Z,1.90
2022-09-29T09:14:32.154Z,2.80
2022-09-29T09:26:28.014Z,2.10
2022-09-29T09:38:18.384Z,2.40
2022-09-29T09:44:02.448Z,5.10
2022-09-29T09:49:49.344Z,2.10
2022-09-29T10:07:55.602Z,3.10
2022-09-29T10:14:24.222Z,3.50
2022-09-29T10:20:54.787Z,6.40
2022-09-29T10:27:24.223Z,7.40
2022-09-29T10:40:50.391Z,7.80
2022-09-29T10:47:39.233Z,7.60
2022-09-29T10:59:42.395Z,6.80
2022-09-29T11:05:30.203Z,6.30
2022-09-29T11:11:23.270Z,6.30
2022-09-29T11:17:00.354Z,4.80
2022-09-29T11:23:01.276Z,4.90
2022-09-29T11:28:57.293Z,3.50
2022-09-29T11:34:50.979Z,3.70
2022-09-29T11:40:36.112Z,4.40
2022-09-29T11:46:53.371Z,4.50
2022-09-29T11:53:14.290Z,5.20
2022-09-29T11:59:34.236Z,5.20
2022-09-29T12:05:34.127Z,4.90
2022-09-29T12:12:28.310Z,5.90
2022-09-29T12:18:14.217Z,5.20
2022-09-29T12:24:08.447Z,4.50
2022-09-29T12:30:11.380Z,5.20
2022-09-29T12:42:01.428Z,4.70
2022-09-29T12:47:59.421Z,6.00
2022-09-29T12:53:48.364Z,6.50
2022-09-29T12:59:50.265Z,4.90
2022-09-29T13:11:57.370Z,5.60
2022-09-29T13:17:49.087Z,6.10
2022-09-29T13:23:42.330Z,6.00
2022-09-29T13:29:19.299Z,5.50
2022-09-29T13:35:00.224Z,6.40
2022-09-29T13:40:50.357Z,6.10
2022-09-29T13:47:21.839Z,6.30
2022-09-29T13:53:36.295Z,7.30
2022-09-29T13:59:21.984Z,6.10
2022-09-29T14:11:59.931Z,6.70
2022-09-29T14:25:51.208Z,5.00
2022-09-29T14:38:03.180Z,5.10
2022-09-29T14:44:12.329Z,4.60
2022-09-29T14:49:57.301Z,4.30
2022-09-29T14:55:31.317Z,4.40
2022-09-29T15:01:18.370Z,4.10
2022-09-29T15:07:21.516Z,4.00
2022-09-29T15:19:17.335Z,4.00
2022-09-29T15:25:13.053Z,4.00
2022-09-29T15:43:14.396Z,5.10
2022-09-29T15:49:15.312Z,5.20
2022-09-29T15:54:56.472Z,5.10
2022-09-29T16:00:36.310Z,5.20
2022-09-29T16:06:51.543Z,4.80
2022-09-29T16:12:58.094Z,5.10
2022-09-29T16:18:44.275Z,5.80
2022-09-29T16:30:48.653Z,7.40
2022-09-29T16:36:33.383Z,8.30
2022-09-29T16:54:21.719Z,7.40
2022-09-29T17:12:17.465Z,9.80
2022-09-29T17:18:36.158Z,9.50
2022-09-29T17:24:39.216Z,10.80
2022-09-29T17:30:33.550Z,12.30
2022-09-29T17:36:13.964Z,12.70
2022-09-29T17:42:39.888Z,12.10
2022-09-29T17:49:23.020Z,10.70
2022-09-29T17:56:07.835Z,10.20
2022-09-29T18:02:11.731Z,9.30
2022-09-29T18:07:57.799Z,10.20
2022-09-29T18:20:48.441Z,13.10
2022-09-29T18:26:27.625Z,14.00
2022-09-29T18:32:49.382Z,13.80
2022-09-29T18:39:11.210Z,16.00
2022-09-29T18:52:33.627Z,16.50
2022-09-29T18:58:57.397Z,18.30
2022-09-29T19:04:35.430Z,19.90
2022-09-29T19:10:56.166Z,19.50
2022-09-29T19:17:06.905Z,19.30
2022-09-29T19:23:08.180Z,22.10
2022-09-29T19:28:46.571Z,23.30
2022-09-29T19:34:52.294Z,24.10
2022-09-29T19:40:47.570Z,24.40
2022-09-29T19:47:09.209Z,25.80
2022-09-29T19:53:24.671Z,21.30
2022-09-29T19:59:00.825Z,21.80
2022-09-29T20:05:08.472Z,20.60
2022-09-29T20:11:13.414Z,19.80
2022-09-29T20:16:51.748Z,17.90
2022-09-29T20:22:32.683Z,17.20
2022-09-29T20:28:52.969Z,17.80
2022-09-29T20:35:50.514Z,18.10
2022-09-29T20:42:32.925Z,20.20
2022-09-29T20:49:15.000Z,19.90
2022-09-29T20:55:57.950Z,15.40
2022-09-29T21:02:22.029Z,14.70
2022-09-29T21:09:04.901Z,14.50
2022-09-29T21:15:47.968Z,15.20
2022-09-29T21:22:30.320Z,15.50
2022-09-29T21:29:13.474Z,15.50
2022-09-29T21:35:56.370Z,17.70
2022-09-29T21:42:39.080Z,16.70
2022-09-29T21:49:22.445Z,20.80
2022-09-29T21:56:05.116Z,18.10
2022-09-29T22:02:27.912Z,18.70
2022-09-29T22:09:10.892Z,19.00
2022-09-29T22:15:53.417Z,19.80
2022-09-29T22:22:17.286Z,21.90
2022-09-29T22:28:59.779Z,22.70
2022-09-29T22:35:42.749Z,22.30
2022-09-29T22:42:25.290Z,20.30
2022-09-29T22:49:07.681Z,17.70
2022-09-29T22:55:50.478Z,18.00
2022-09-29T23:02:33.154Z,17.80
2022-09-29T23:09:15.866Z,16.40
2022-09-29T23:15:58.591Z,16.20
2022-09-29T23:22:24.994Z,16.40
2022-09-29T23:29:07.386Z,16.70
2022-09-29T23:35:49.909Z,15.20
2022-09-29T23:42:32.524Z,15.80
2022-09-29T23:49:15.452Z,16.50
2022-09-29T23:55:58.159Z,15.40
